createdAt,value
2022-10-03T00:03:38.239Z,43.31
2022-10-03T00:09:01.879Z,40.88
2022-10-03T00:14:13.698Z,40.94
2022-10-03T00:19:39.811Z,39.85
2022-10-03T00:25:03.081Z,39.68
2022-10-03T00:30:14.010Z,38.30
2022-10-03T00:35:24.222Z,39.68
2022-10-03T00:40:50.704Z,38.38
2022-10-03T00:46:24.024Z,38.71
2022-10-03T00:51:46.111Z,38.59
2022-10-03T00:57:16.477Z,38.97
2022-10-03T01:02:32.067Z,37.52
2022-10-03T01:08:14.167Z,38.92
2022-10-03T01:13:28.007Z,40.36
2022-10-03T01:18:55.016Z,39.13
2022-10-03T01:24:12.366Z,39.04
2022-10-03T01:30:03.824Z,38.89
2022-10-03T01:35:14.698Z,36.86
2022-10-03T01:40:31.873Z,38.04
2022-10-03T01:46:26.533Z,37.56
2022-10-03T01:51:44.206Z,36.93
2022-10-03T01:56:57.890Z,36.99
2022-10-03T02:02:21.631Z,36.50
2022-10-03T02:07:35.769Z,36.43
2022-10-03T02:12:48.287Z,35.10
2022-10-03T02:17:58.212Z,36.19
2022-10-03T02:23:00.705Z,37.90
2022-10-03T02:28:30.749Z,36.82
2022-10-03T02:33:51.913Z,36.11
2022-10-03T02:39:06.575Z,35.82
2022-10-03T02:44:27.179Z,34.02
2022-10-03T02:49:54.170Z,33.54
2022-10-03T02:55:40.318Z,34.75
2022-10-03T03:01:03.634Z,35.02
2022-10-03T03:06:43.173Z,35.10
2022-10-03T03:12:30.405Z,34.73
2022-10-03T03:17:47.142Z,34.66
2022-10-03T03:22:54.162Z,34.54
2022-10-03T03:28:15.074Z,34.32
2022-10-03T03:33:36.173Z,35.05
2022-10-03T03:39:12.976Z,35.04
2022-10-03T03:44:17.358Z,36.26
2022-10-03T03:49:39.376Z,37.19
2022-10-03T03:55:24.279Z,38.85
2022-10-03T04:01:07.339Z,38.85
2022-10-03T04:06:18.149Z,44.83
2022-10-03T04:12:09.854Z,45.53
2022-10-03T04:17:54.317Z,46.11
2022-10-03T04:23:13.033Z,46.08
2022-10-03T04:28:38.645Z,48.27
2022-10-03T04:34:07.813Z,50.52
2022-10-03T04:39:26.325Z,51.81
2022-10-03T04:44:59.006Z,51.66
2022-10-03T04:50:12.831Z,51.27
2022-10-03T04:55:35.267Z,52.82
2022-10-03T05:00:38.495Z,51.73
2022-10-03T05:06:04.729Z,51.46
2022-10-03T05:11:49.793Z,55.26
2022-10-03T05:17:09.849Z,55.42
2022-10-03T05:22:25.145Z,54.94
2022-10-03T05:27:45.350Z,55.43
2022-10-03T05:33:19.901Z,55.89
2022-10-03T05:38:44.813Z,56.64
2022-10-03T05:44:14.283Z,56.55
2022-10-03T05:50:08.018Z,57.16
2022-10-03T05:55:57.806Z,56.23
2022-10-03T06:01:08.809Z,55.59
2022-10-03T06:06:25.177Z,55.57
2022-10-03T06:11:51.390Z,56.08
2022-10-03T06:17:12.209Z,54.59
2022-10-03T06:22:56.168Z,54.78
2022-10-03T06:28:35.336Z,52.07
2022-10-03T06:33:54.196Z,50.85
2022-10-03T06:39:31.264Z,47.76
2022-10-03T06:44:41.415Z,47.48
2022-10-03T06:50:01.876Z,47.86
2022-10-03T06:55:28.517Z,47.22
2022-10-03T07:01:18.629Z,46.22
2022-10-03T07:06:46.157Z,46.77
2022-10-03T07:12:26.714Z,51.04
2022-10-03T07:17:50.138Z,51.74
2022-10-03T07:23:28.370Z,52.18
2022-10-03T07:28:48.909Z,53.61
2022-10-03T07:34:13.618Z,54.94
2022-10-03T07:39:43.327Z,53.81
2022-10-03T07:45:08.233Z,53.30
2022-10-03T07:50:19.051Z,50.76
2022-10-03T07:55:31.681Z,52.21
2022-10-03T08:00:36.159Z,51.60
2022-10-03T08:06:15.882Z,49.83
2022-10-03T08:11:33.073Z,45.89
2022-10-03T08:17:08.801Z,46.72
2022-10-03T08:22:43.291Z,43.02
2022-10-03T08:27:57.312Z,41.70
2022-10-03T08:33:18.762Z,41.12
2022-10-03T08:38:48.532Z,42.86
2022-10-03T08:44:20.986Z,42.85
2022-10-03T08:49:33.053Z,44.77
2022-10-03T08:54:35.213Z,42.77
2022-10-03T08:59:49.302Z,40.42
2022-10-03T09:05:16.281Z,39.93
2022-10-03T09:10:35.330Z,42.74
2022-10-03T09:16:05.351Z,41.38
2022-10-03T09:21:40.669Z,42.42
2022-10-03T09:27:33.247Z,41.17
2022-10-03T09:33:11.957Z,38.95
2022-10-03T09:38:35.241Z,39.28
2022-10-03T09:44:11.469Z,43.21
2022-10-03T09:49:48.581Z,48.20
2022-10-03T09:54:50.481Z,54.11
2022-10-03T09:59:58.839Z,54.36
2022-10-03T10:05:16.097Z,50.56
2022-10-03T10:10:18.463Z,51.07
2022-10-03T10:15:38.795Z,53.65
2022-10-03T10:21:51.592Z,57.10
2022-10-03T10:26:59.409Z,55.04
2022-10-03T10:32:23.349Z,54.73
2022-10-03T10:37:44.081Z,54.08
2022-10-03T10:43:20.963Z,52.81
2022-10-03T10:49:03.676Z,51.62
2022-10-03T10:54:42.849Z,49.86
2022-10-03T11:00:25.258Z,51.51
2022-10-03T11:06:08.472Z,45.77
2022-10-03T11:11:13.394Z,51.91
2022-10-03T11:16:49.240Z,52.14
2022-10-03T11:22:13.464Z,51.69
2022-10-03T11:27:46.712Z,47.21
2022-10-03T11:33:11.929Z,42.68
2022-10-03T11:38:21.957Z,40.85
2022-10-03T11:43:43.552Z,35.94
2022-10-03T11:48:58.121Z,29.13
2022-10-03T11:54:32.750Z,23.29
2022-10-03T12:00:10.066Z,16.08
2022-10-03T12:05:41.991Z,13.30
2022-10-03T12:10:46.741Z,8.01
2022-10-03T12:15:51.837Z,8.48
2022-10-03T12:21:24.646Z,1.29
2022-10-03T12:26:45.876Z,-0.38
2022-10-03T12:31:57.765Z,-3.67
2022-10-03T12:37:19.801Z,-5.34
2022-10-03T12:42:51.217Z,117.50
2022-10-03T12:47:56.666Z,115.54
2022-10-03T12:53:15.329Z,115.03
2022-10-03T12:58:35.332Z,113.67
2022-10-03T13:03:57.565Z,112.45
2022-10-03T13:09:33.615Z,112.04
2022-10-03T13:15:06.022Z,109.65
2022-10-03T13:20:17.708Z,107.62
2022-10-03T13:25:36.333Z,105.40
2022-10-03T13:30:44.976Z,103.13
2022-10-03T13:35:58.572Z,103.12
2022-10-03T13:41:04.079Z,103.29
2022-10-03T13:46:15.075Z,101.32
2022-10-03T13:51:45.919Z,101.55
2022-10-03T13:57:22.895Z,100.93
2022-10-03T14:02:26.538Z,101.78
2022-10-03T14:07:40.469Z,101.06
2022-10-03T14:13:00.394Z,99.87
2022-10-03T14:18:08.284Z,99.78
2022-10-03T14:23:19.456Z,99.29
2022-10-03T14:28:49.741Z,99.70
2022-10-03T14:34:14.277Z,100.38
2022-10-03T14:39:44.360Z,98.82
2022-10-03T14:45:01.001Z,99.70
2022-10-03T14:50:05.066Z,100.58
2022-10-03T14:55:31.817Z,100.56
2022-10-03T15:00:43.968Z,101.91
2022-10-03T15:05:59.398Z,102.77
2022-10-03T15:11:03.034Z,102.47
2022-10-03T15:16:05.520Z,101.29
2022-10-03T15:21:16.247Z,100.97
2022-10-03T15:26:21.828Z,100.98
2022-10-03T15:31:32.736Z,101.57
2022-10-03T15:36:40.007Z,101.95
2022-10-03T15:42:09.749Z,102.57
2022-10-03T15:47:20.134Z,104.05
2022-10-03T15:52:31.718Z,105.33
2022-10-03T15:57:38.357Z,106.30
2022-10-03T16:02:52.722Z,107.24
2022-10-03T16:07:54.618Z,106.79
2022-10-03T16:12:58.555Z,107.11
2022-10-03T16:18:05.814Z,107.96
2022-10-03T16:23:20.351Z,108.71
2022-10-03T16:28:30.566Z,109.39
2022-10-03T16:33:38.932Z,110.43
2022-10-03T16:38:46.305Z,111.76
2022-10-03T16:44:25.126Z,112.72
2022-10-03T16:50:10.340Z,113.39
2022-10-03T16:55:22.616Z,113.42
2022-10-03T17:00:45.024Z,113.86
2022-10-03T17:05:51.981Z,114.36
2022-10-03T17:10:58.140Z,116.22
2022-10-03T17:16:14.198Z,-3.05
2022-10-03T17:21:30.500Z,1.93
2022-10-03T17:26:40.383Z,6.19
2022-10-03T17:31:48.224Z,11.84
2022-10-03T17:37:16.757Z,15.74
2022-10-03T17:42:42.387Z,18.17
2022-10-03T17:48:12.099Z,21.42
2022-10-03T17:53:33.128Z,22.28
2022-10-03T17:58:38.193Z,22.78
2022-10-03T18:03:46.278Z,24.10
2022-10-03T18:08:51.160Z,25.35
2022-10-03T18:14:13.972Z,23.45
2022-10-03T18:19:41.514Z,23.38
2022-10-03T18:25:34.604Z,21.96
2022-10-03T18:30:53.996Z,22.56
2022-10-03T18:35:57.055Z,22.82
2022-10-03T18:41:00.763Z,22.74
2022-10-03T18:46:12.201Z,23.53
2022-10-03T18:51:39.327Z,23.59
2022-10-03T18:56:43.356Z,24.22
2022-10-03T19:01:58.870Z,24.53
2022-10-03T19:07:34.053Z,25.58
2022-10-03T19:12:41.538Z,25.80
2022-10-03T19:18:08.031Z,25.81
2022-10-03T19:23:39.400Z,28.36
2022-10-03T19:28:48.677Z,29.61
2022-10-03T19:33:56.241Z,29.69
2022-10-03T19:38:59.678Z,31.85
2022-10-03T19:44:08.117Z,33.67
2022-10-03T19:49:27.815Z,34.57
2022-10-03T19:54:50.355Z,35.38
2022-10-03T19:59:56.408Z,35.32
2022-10-03T20:04:58.614Z,35.00
2022-10-03T20:10:15.317Z,35.41
2022-10-03T20:15:26.608Z,35.57
2022-10-03T20:20:31.915Z,35.76
2022-10-03T20:25:43.227Z,37.43
2022-10-03T20:30:45.777Z,38.66
2022-10-03T20:35:52.440Z,39.32
2022-10-03T20:41:19.757Z,41.69
2022-10-03T20:46:40.711Z,40.07
2022-10-03T20:52:07.131Z,40.36
2022-10-03T20:57:25.012Z,38.59
2022-10-03T21:02:42.389Z,40.50
2022-10-03T21:07:53.840Z,39.05
2022-10-03T21:13:07.105Z,37.78
2022-10-03T21:18:30.908Z,38.07
2022-10-03T21:23:48.469Z,39.28
2022-10-03T21:28:50.480Z,39.34
2022-10-03T21:34:01.452Z,40.27
2022-10-03T21:39:17.584Z,40.45
2022-10-03T21:44:29.378Z,37.89
2022-10-03T21:49:57.335Z,37.72
2022-10-03T21:55:08.234Z,37.79
2022-10-03T22:00:15.927Z,37.41
2022-10-03T22:05:30.110Z,39.12
2022-10-03T22:10:36.861Z,40.44
2022-10-03T22:16:11.055Z,39.81
2022-10-03T22:21:33.286Z,39.23
2022-10-03T22:26:38.409Z,39.72
2022-10-03T22:32:00.813Z,40.57
2022-10-03T22:37:03.419Z,39.87
2022-10-03T22:42:06.976Z,40.39
2022-10-03T22:47:19.534Z,43.44
2022-10-03T22:52:27.513Z,43.99
2022-10-03T22:57:35.021Z,44.68
2022-10-03T23:02:40.691Z,48.42
2022-10-03T23:08:09.691Z,48.63
2022-10-03T23:13:29.597Z,49.50
2022-10-03T23:18:31.573Z,50.21
2022-10-03T23:24:05.393Z,50.57
2022-10-03T23:29:15.715Z,48.86
2022-10-03T23:34:38.346Z,50.85
2022-10-03T23:39:47.173Z,49.07
2022-10-03T23:45:00.774Z,47.98
2022-10-03T23:50:05.539Z,49.18
2022-10-03T23:55:08.555Z,49.18
